sensor_id;sensor_type;location;lat;lon;timestamp;pressure;altitude;pressure_sealevel;temperature;humidity
67818;BME280;54614;47.576;7.524;2023-02-28T00:01:09;98913.25;;;22.49;29.19
67818;BME280;54614;47.576;7.524;2023-02-28T00:03:35;98903.53;;;22.48;29.15
67818;BME280;54614;47.576;7.524;2023-02-28T00:06:04;98911.78;;;22.46;29.21
67818;BME280;54614;47.576;7.524;2023-02-28T00:08:30;98915.47;;;22.45;29.18
67818;BME280;54614;47.576;7.524;2023-02-28T00:10:56;98916.50;;;22.44;29.31
67818;BME280;54614;47.576;7.524;2023-02-28T00:13:22;98921.84;;;22.44;29.26
67818;BME280;54614;47.576;7.524;2023-02-28T00:15:47;98911.31;;;22.43;29.57
67818;BME280;54614;47.576;7.524;2023-02-28T00:18:23;98916.88;;;22.41;29.19
67818;BME280;54614;47.576;7.524;2023-02-28T00:20:49;98911.72;;;22.40;29.11
67818;BME280;54614;47.576;7.524;2023-02-28T00:23:15;98913.56;;;22.39;29.34
67818;BME280;54614;47.576;7.524;2023-02-28T00:25:41;98903.84;;;22.38;29.32
67818;BME280;54614;47.576;7.524;2023-02-28T00:28:06;98910.22;;;22.37;29.47
67818;BME280;54614;47.576;7.524;2023-02-28T00:30:32;98905.72;;;22.38;29.26
67818;BME280;54614;47.576;7.524;2023-02-28T00:32:58;98900.34;;;22.38;29.45
67818;BME280;54614;47.576;7.524;2023-02-28T00:35:24;98910.41;;;22.36;29.33
67818;BME280;54614;47.576;7.524;2023-02-28T00:37:50;98912.28;;;22.35;29.50
67818;BME280;54614;47.576;7.524;2023-02-28T00:40:16;98910.63;;;22.34;29.26
67818;BME280;54614;47.576;7.524;2023-02-28T00:42:42;98907.09;;;22.34;29.53
67818;BME280;54614;47.576;7.524;2023-02-28T00:45:08;98915.16;;;22.34;29.56
67818;BME280;54614;47.576;7.524;2023-02-28T00:47:37;98910.81;;;22.33;29.51
67818;BME280;54614;47.576;7.524;2023-02-28T00:50:05;98912.66;;;22.32;29.46
67818;BME280;54614;47.576;7.524;2023-02-28T00:52:31;98913.66;;;22.31;29.76
67818;BME280;54614;47.576;7.524;2023-02-28T00:54:57;98907.47;;;22.31;29.65
67818;BME280;54614;47.576;7.524;2023-02-28T00:57:23;98907.66;;;22.29;29.50
67818;BME280;54614;47.576;7.524;2023-02-28T00:59:49;98913.66;;;22.31;29.42
67818;BME280;54614;47.576;7.524;2023-02-28T01:02:15;98913.03;;;22.29;29.55
67818;BME280;54614;47.576;7.524;2023-02-28T01:04:41;98907.84;;;22.28;29.60
67818;BME280;54614;47.576;7.524;2023-02-28T01:07:08;98913.03;;;22.29;29.70
67818;BME280;54614;47.576;7.524;2023-02-28T01:09:34;98906.00;;;22.28;29.53
67818;BME280;54614;47.576;7.524;2023-02-28T01:12:00;98906.00;;;22.28;29.42
67818;BME280;54614;47.576;7.524;2023-02-28T01:14:26;98912.38;;;22.27;29.87
67818;BME280;54614;47.576;7.524;2023-02-28T01:16:52;98910.72;;;22.26;29.47
67818;BME280;54614;47.576;7.524;2023-02-28T01:19:18;98908.88;;;22.27;29.61
67818;BME280;54614;47.576;7.524;2023-02-28T01:21:44;98903.72;;;22.25;29.85
67818;BME280;54614;47.576;7.524;2023-02-28T01:24:10;98898.34;;;22.25;29.61
67818;BME280;54614;47.576;7.524;2023-02-28T01:26:35;98896.69;;;22.24;29.53
67818;BME280;54614;47.576;7.524;2023-02-28T01:29:01;98902.03;;;22.24;29.81
67818;BME280;54614;47.576;7.524;2023-02-28T01:31:27;98897.72;;;22.23;29.55
67818;BME280;54614;47.576;7.524;2023-02-28T01:33:53;98899.38;;;22.24;29.46
67818;BME280;54614;47.576;7.524;2023-02-28T01:36:23;98896.03;;;22.22;29.89
67818;BME280;54614;47.576;7.524;2023-02-28T01:38:50;98900.56;;;22.22;29.47
67818;BME280;54614;47.576;7.524;2023-02-28T01:41:27;98894.38;;;22.21;29.62
67818;BME280;54614;47.576;7.524;2023-02-28T01:44:05;98898.09;;;22.20;29.72
67818;BME280;54614;47.576;7.524;2023-02-28T01:46:34;98895.41;;;22.20;29.66
67818;BME280;54614;47.576;7.524;2023-02-28T01:49:08;98892.91;;;22.18;29.74
67818;BME280;54614;47.576;7.524;2023-02-28T01:51:41;98881.56;;;22.16;29.81
67818;BME280;54614;47.576;7.524;2023-02-28T01:54:18;98885.72;;;22.19;29.57
67818;BME280;54614;47.576;7.524;2023-02-28T01:57:01;98882.19;;;22.18;29.78
67818;BME280;54614;47.576;7.524;2023-02-28T02:00:01;98885.72;;;22.19;29.79
67818;BME280;54614;47.576;7.524;2023-02-28T02:02:31;98874.53;;;22.15;29.79
67818;BME280;54614;47.576;7.524;2023-02-28T02:05:05;98877.22;;;22.15;29.83
67818;BME280;54614;47.576;7.524;2023-02-28T02:07:41;98881.56;;;22.16;29.71
67818;BME280;54614;47.576;7.524;2023-02-28T02:10:23;98879.06;;;22.15;29.65
67818;BME280;54614;47.576;7.524;2023-02-28T02:16:40;98875.56;;;22.14;29.88
67818;BME280;54614;47.576;7.524;2023-02-28T02:25:50;98858.00;;;22.12;29.76
67818;BME280;54614;47.576;7.524;2023-02-28T02:31:28;98861.91;;;22.09;29.81
67818;BME280;54614;47.576;7.524;2023-02-28T02:34:59;98860.88;;;22.10;29.58
67818;BME280;54614;47.576;7.524;2023-02-28T02:37:50;98859.22;;;22.09;29.68
67818;BME280;54614;47.576;7.524;2023-02-28T02:40:43;98865.41;;;22.10;29.76
67818;BME280;54614;47.576;7.524;2023-02-28T02:43:20;98853.22;;;22.07;29.79
67818;BME280;54614;47.576;7.524;2023-02-28T02:45:56;98866.63;;;22.07;29.59
67818;BME280;54614;47.576;7.524;2023-02-28T02:48:30;98867.63;;;22.06;29.53
67818;BME280;54614;47.576;7.524;2023-02-28T02:51:01;98860.44;;;22.07;29.56
67818;BME280;54614;47.576;7.524;2023-02-28T02:53:36;98867.63;;;22.06;29.44
67818;BME280;54614;47.576;7.524;2023-02-28T02:56:08;98861.63;;;22.04;29.48
67818;BME280;54614;47.576;7.524;2023-02-28T02:58:40;98863.47;;;22.04;29.48
67818;BME280;54614;47.576;7.524;2023-02-28T03:01:10;98865.13;;;22.05;29.68
67818;BME280;54614;47.576;7.524;2023-02-28T03:03:38;98861.63;;;22.04;29.48
67818;BME280;54614;47.576;7.524;2023-02-28T03:06:04;98866.16;;;22.04;29.66
67818;BME280;54614;47.576;7.524;2023-02-28T03:08:36;98865.31;;;22.03;29.63
67818;BME280;54614;47.576;7.524;2023-02-28T03:11:12;98872.34;;;22.04;29.54
67818;BME280;54614;47.576;7.524;2023-02-28T03:23:03;98873.72;;;22.00;29.68
67818;BME280;54614;47.576;7.524;2023-02-28T03:29:02;98873.06;;;21.98;29.62
67818;BME280;54614;47.576;7.524;2023-02-28T03:31:39;98865.03;;;21.98;29.55
67818;BME280;54614;47.576;7.524;2023-02-28T03:34:23;98863.19;;;21.99;29.61
67818;BME280;54614;47.576;7.524;2023-02-28T03:36:57;98867.72;;;21.98;29.76
67818;BME280;54614;47.576;7.524;2023-02-28T03:39:34;98872.25;;;21.98;29.69
67818;BME280;54614;47.576;7.524;2023-02-28T03:42:10;98870.56;;;21.97;29.76
67818;BME280;54614;47.576;7.524;2023-02-28T03:44:49;98876.94;;;21.96;29.53
67818;BME280;54614;47.576;7.524;2023-02-28T03:50:07;98881.47;;;21.95;29.84
67818;BME280;54614;47.576;7.524;2023-02-28T03:52:49;98884.16;;;21.95;29.96
67818;BME280;54614;47.576;7.524;2023-02-28T03:55:17;98881.47;;;21.95;29.83
67818;BME280;54614;47.576;7.524;2023-02-28T04:00:40;98884.34;;;21.94;29.69
67818;BME280;54614;47.576;7.524;2023-02-28T04:03:09;98880.84;;;21.93;29.79
67818;BME280;54614;47.576;7.524;2023-02-28T04:05:54;98888.88;;;21.93;29.70
67818;BME280;54614;47.576;7.524;2023-02-28T04:08:22;98887.38;;;21.91;29.73
67818;BME280;54614;47.576;7.524;2023-02-28T04:13:40;98898.28;;;21.89;29.76
67818;BME280;54614;47.576;7.524;2023-02-28T04:16:09;98894.59;;;21.90;29.75
67818;BME280;54614;47.576;7.524;2023-02-28T04:18:39;98899.13;;;21.90;29.96
67818;BME280;54614;47.576;7.524;2023-02-28T04:21:06;98906.13;;;21.91;29.66
67818;BME280;54614;47.576;7.524;2023-02-28T04:23:32;98899.94;;;21.90;30.16
67818;BME280;54614;47.576;7.524;2023-02-28T04:25:59;98910.03;;;21.88;30.00
67818;BME280;54614;47.576;7.524;2023-02-28T04:28:25;98906.50;;;21.87;29.90
67818;BME280;54614;47.576;7.524;2023-02-28T04:31:00;98912.88;;;21.86;30.05
67818;BME280;54614;47.576;7.524;2023-02-28T04:33:27;98908.53;;;21.85;29.98
67818;BME280;54614;47.576;7.524;2023-02-28T04:36:02;98911.22;;;21.85;30.02
67818;BME280;54614;47.576;7.524;2023-02-28T04:38:38;98911.88;;;21.87;30.10
67818;BME280;54614;47.576;7.524;2023-02-28T04:41:05;98909.38;;;21.86;30.13
67818;BME280;54614;47.576;7.524;2023-02-28T04:43:31;98911.88;;;21.87;30.19
67818;BME280;54614;47.576;7.524;2023-02-28T04:46:01;98912.69;;;21.88;30.21
67818;BME280;54614;47.576;7.524;2023-02-28T04:48:31;98903.84;;;21.87;30.29
67818;BME280;54614;47.576;7.524;2023-02-28T04:51:09;98913.53;;;21.88;29.99
67818;BME280;54614;47.576;7.524;2023-02-28T04:53:37;98910.03;;;21.88;29.86
67818;BME280;54614;47.576;7.524;2023-02-28T04:56:04;98909.19;;;21.87;30.34
67818;BME280;54614;47.576;7.524;2023-02-28T04:58:32;98913.53;;;21.88;30.12
67818;BME280;54614;47.576;7.524;2023-02-28T05:01:13;98915.00;;;21.91;30.45
67818;BME280;54614;47.576;7.524;2023-02-28T05:03:42;98915.47;;;21.95;30.42
67818;BME280;54614;47.576;7.524;2023-02-28T05:06:09;98910.19;;;22.01;31.71
67818;BME280;54614;47.576;7.524;2023-02-28T05:08:35;98917.41;;;22.01;30.57
67818;BME280;54614;47.576;7.524;2023-02-28T05:11:02;98919.06;;;22.02;30.11
67818;BME280;54614;47.576;7.524;2023-02-28T05:13:29;98919.53;;;22.05;30.10
67818;BME280;54614;47.576;7.524;2023-02-28T05:15:56;98922.41;;;22.04;30.23
67818;BME280;54614;47.576;7.524;2023-02-28T05:18:21;98916.69;;;22.07;30.31
67818;BME280;54614;47.576;7.524;2023-02-28T05:20:47;98936.25;;;22.07;30.30
67818;BME280;54614;47.576;7.524;2023-02-28T05:23:15;98935.44;;;22.07;30.08
67818;BME280;54614;47.576;7.524;2023-02-28T05:25:42;98934.22;;;22.09;30.31
67818;BME280;54614;47.576;7.524;2023-02-28T05:28:09;98932.19;;;22.11;30.35
67818;BME280;54614;47.576;7.524;2023-02-28T05:30:34;98926.66;;;22.13;30.36
67818;BME280;54614;47.576;7.524;2023-02-28T05:33:00;98935.31;;;22.15;30.43
67818;BME280;54614;47.576;7.524;2023-02-28T05:35:26;98928.56;;;22.19;30.40
67818;BME280;54614;47.576;7.524;2023-02-28T05:37:52;98925.53;;;22.22;30.31
67818;BME280;54614;47.576;7.524;2023-02-28T05:40:18;98930.88;;;22.22;30.21
67818;BME280;54614;47.576;7.524;2023-02-28T05:42:46;98934.66;;;22.28;30.26
67818;BME280;54614;47.576;7.524;2023-02-28T05:45:13;98935.28;;;22.30;30.18
67818;BME280;54614;47.576;7.524;2023-02-28T05:47:38;98928.09;;;22.30;30.25
67818;BME280;54614;47.576;7.524;2023-02-28T05:50:05;98930.78;;;22.30;30.39
67818;BME280;54614;47.576;7.524;2023-02-28T05:52:31;98922.34;;;22.33;30.69
67818;BME280;54614;47.576;7.524;2023-02-28T05:54:57;98929.81;;;22.38;30.35
67818;BME280;54614;47.576;7.524;2023-02-28T05:57:23;98925.56;;;22.43;31.01
67818;BME280;54614;47.576;7.524;2023-02-28T05:59:49;98927.69;;;22.48;31.20
67818;BME280;54614;47.576;7.524;2023-02-28T06:02:17;98931.44;;;22.54;30.63
67818;BME280;54614;47.576;7.524;2023-02-28T06:04:44;98935.78;;;22.55;30.67
67818;BME280;54614;47.576;7.524;2023-02-28T06:07:10;98938.28;;;22.56;31.11
67818;BME280;54614;47.576;7.524;2023-02-28T06:09:37;98940.00;;;22.64;35.71
67818;BME280;54614;47.576;7.524;2023-02-28T06:12:05;98937.72;;;22.61;37.53
67818;BME280;54614;47.576;7.524;2023-02-28T06:14:34;98943.06;;;22.61;37.52
67818;BME280;54614;47.576;7.524;2023-02-28T06:17:00;98942.25;;;22.60;36.25
67818;BME280;54614;47.576;7.524;2023-02-28T06:19:27;98935.72;;;22.69;35.16
67818;BME280;54614;47.576;7.524;2023-02-28T06:21:56;98948.72;;;22.87;34.16
67818;BME280;54614;47.576;7.524;2023-02-28T06:24:24;98943.44;;;22.94;33.57
67818;BME280;54614;47.576;7.524;2023-02-28T06:26:50;98938.31;;;22.99;33.49
67818;BME280;54614;47.576;7.524;2023-02-28T06:29:17;98944.78;;;23.04;33.30
67818;BME280;54614;47.576;7.524;2023-02-28T06:31:45;98948.22;;;22.98;32.89
67818;BME280;54614;47.576;7.524;2023-02-28T06:34:12;98954.66;;;23.04;32.94
67818;BME280;54614;47.576;7.524;2023-02-28T06:36:40;98954.41;;;22.99;32.35
67818;BME280;54614;47.576;7.524;2023-02-28T06:39:07;98957.53;;;23.02;32.06
67818;BME280;54614;47.576;7.524;2023-02-28T06:41:33;98957.78;;;23.07;32.66
67818;BME280;54614;47.576;7.524;2023-02-28T06:44:04;98957.53;;;23.02;33.44
67818;BME280;54614;47.576;7.524;2023-02-28T06:46:31;98957.53;;;23.02;33.17
67818;BME280;54614;47.576;7.524;2023-02-28T06:48:57;98963.16;;;23.07;31.69
67818;BME280;54614;47.576;7.524;2023-02-28T06:51:23;98959.00;;;23.05;31.08
67818;BME280;54614;47.576;7.524;2023-02-28T06:53:50;98952.81;;;23.04;31.35
67818;BME280;54614;47.576;7.524;2023-02-28T06:56:18;98955.44;;;22.98;31.03
67818;BME280;54614;47.576;7.524;2023-02-28T06:58:50;98956.84;;;22.94;30.91
67818;BME280;54614;47.576;7.524;2023-02-28T07:01:17;98954.53;;;22.91;30.68
67818;BME280;54614;47.576;7.524;2023-02-28T07:03:45;98957.63;;;22.88;30.59
67818;BME280;54614;47.576;7.524;2023-02-28T07:06:11;98960.75;;;22.91;30.67
67818;BME280;54614;47.576;7.524;2023-02-28T07:08:38;98960.69;;;22.85;30.25
67818;BME280;54614;47.576;7.524;2023-02-28T07:11:05;98970.56;;;22.84;30.56
67818;BME280;54614;47.576;7.524;2023-02-28T07:13:31;98966.69;;;22.87;30.62
67818;BME280;54614;47.576;7.524;2023-02-28T07:16:01;98964.38;;;22.83;30.53
67818;BME280;54614;47.576;7.524;2023-02-28T07:18:28;98968.72;;;22.85;30.18
67818;BME280;54614;47.576;7.524;2023-02-28T07:20:54;98977.16;;;22.81;30.72
67818;BME280;54614;47.576;7.524;2023-02-28T07:23:21;98979.34;;;22.78;30.35
67818;BME280;54614;47.576;7.524;2023-02-28T07:25:48;98981.00;;;22.79;30.31
67818;BME280;54614;47.576;7.524;2023-02-28T07:28:14;98976.31;;;22.81;30.48
67818;BME280;54614;47.576;7.524;2023-02-28T07:30:41;98982.31;;;22.83;30.22
67818;BME280;54614;47.576;7.524;2023-02-28T07:33:07;98989.72;;;22.81;30.51
67818;BME280;54614;47.576;7.524;2023-02-28T07:35:33;98989.53;;;22.82;30.38
67818;BME280;54614;47.576;7.524;2023-02-28T07:38:00;98985.72;;;22.77;30.48
67818;BME280;54614;47.576;7.524;2023-02-28T07:40:26;98987.59;;;22.76;30.58
67818;BME280;54614;47.576;7.524;2023-02-28T07:42:52;98991.94;;;22.77;30.46
67818;BME280;54614;47.576;7.524;2023-02-28T07:45:18;98992.94;;;22.76;30.57
67818;BME280;54614;47.576;7.524;2023-02-28T07:47:45;98995.63;;;22.76;30.44
67818;BME280;54614;47.576;7.524;2023-02-28T07:50:14;99004.88;;;22.74;30.59
67818;BME280;54614;47.576;7.524;2023-02-28T07:52:41;99002.84;;;22.76;30.43
67818;BME280;54614;47.576;7.524;2023-02-28T07:55:08;98997.66;;;22.74;30.74
67818;BME280;54614;47.576;7.524;2023-02-28T07:57:35;99003.03;;;22.74;30.43
67818;BME280;54614;47.576;7.524;2023-02-28T08:00:05;99001.63;;;22.78;30.34
67818;BME280;54614;47.576;7.524;2023-02-28T08:02:31;99004.50;;;22.77;30.55
67818;BME280;54614;47.576;7.524;2023-02-28T08:04:56;99004.50;;;22.77;30.50
67818;BME280;54614;47.576;7.524;2023-02-28T08:07:22;99005.72;;;22.74;30.28
67818;BME280;54614;47.576;7.524;2023-02-28T08:09:48;99005.72;;;22.74;30.44
67818;BME280;54614;47.576;7.524;2023-02-28T08:12:14;99001.38;;;22.73;30.38
67818;BME280;54614;47.576;7.524;2023-02-28T08:14:40;99014.78;;;22.73;30.48
67818;BME280;54614;47.576;7.524;2023-02-28T08:17:06;99015.63;;;22.74;30.45
67818;BME280;54614;47.576;7.524;2023-02-28T08:19:32;99019.50;;;22.71;30.52
67818;BME280;54614;47.576;7.524;2023-02-28T08:21:58;99014.53;;;22.68;30.36
67818;BME280;54614;47.576;7.524;2023-02-28T08:24:24;99015.81;;;22.72;30.11
67818;BME280;54614;47.576;7.524;2023-02-28T08:26:50;99010.44;;;22.72;30.09
67818;BME280;54614;47.576;7.524;2023-02-28T08:29:16;99011.47;;;22.71;30.30
67818;BME280;54614;47.576;7.524;2023-02-28T08:31:42;99015.81;;;22.72;30.06
67818;BME280;54614;47.576;7.524;2023-02-28T08:34:14;99023.19;;;22.70;30.29
67818;BME280;54614;47.576;7.524;2023-02-28T08:36:41;99024.03;;;22.71;30.11
67818;BME280;54614;47.576;7.524;2023-02-28T08:39:08;99020.53;;;22.70;30.14
67818;BME280;54614;47.576;7.524;2023-02-28T08:41:34;99013.50;;;22.69;30.29
67818;BME280;54614;47.576;7.524;2023-02-28T08:44:00;99014.53;;;22.68;30.04
67818;BME280;54614;47.576;7.524;2023-02-28T08:46:27;99014.34;;;22.70;29.84
67818;BME280;54614;47.576;7.524;2023-02-28T08:48:55;99021.53;;;22.69;30.17
67818;BME280;54614;47.576;7.524;2023-02-28T08:51:22;99017.38;;;22.67;30.66
67818;BME280;54614;47.576;7.524;2023-02-28T08:53:53;99029.59;;;22.69;30.62
67818;BME280;54614;47.576;7.524;2023-02-28T08:56:21;99030.41;;;22.70;30.77
67818;BME280;54614;47.576;7.524;2023-02-28T08:58:49;99028.31;;;22.65;30.66
67818;BME280;54614;47.576;7.524;2023-02-28T09:01:22;99036.16;;;22.67;30.89
67818;BME280;54614;47.576;7.524;2023-02-28T09:03:50;99042.72;;;22.64;31.12
67818;BME280;54614;47.576;7.524;2023-02-28T09:06:19;99039.22;;;22.64;31.08
67818;BME280;54614;47.576;7.524;2023-02-28T09:08:46;99031.34;;;22.62;30.54
67818;BME280;54614;47.576;7.524;2023-02-28T09:11:12;99032.19;;;22.63;30.39
67818;BME280;54614;47.576;7.524;2023-02-28T09:13:39;99037.56;;;22.63;30.33
67818;BME280;54614;47.576;7.524;2023-02-28T09:16:10;99034.41;;;22.59;30.25
67818;BME280;54614;47.576;7.524;2023-02-28T09:18:37;99037.09;;;22.59;30.51
67818;BME280;54614;47.576;7.524;2023-02-28T09:21:09;99042.47;;;22.59;30.48
67818;BME280;54614;47.576;7.524;2023-02-28T09:23:35;99043.47;;;22.58;30.84
67818;BME280;54614;47.576;7.524;2023-02-28T09:26:04;99045.31;;;22.58;30.54
67818;BME280;54614;47.576;7.524;2023-02-28T09:28:30;99044.69;;;22.56;30.74
67818;BME280;54614;47.576;7.524;2023-02-28T09:30:56;99043.03;;;22.55;30.85
67818;BME280;54614;47.576;7.524;2023-02-28T09:33:24;99045.69;;;22.55;31.00
67818;BME280;54614;47.576;7.524;2023-02-28T09:35:58;99045.69;;;22.55;30.73
67818;BME280;54614;47.576;7.524;2023-02-28T09:38:23;99041.38;;;22.54;30.51
67818;BME280;54614;47.576;7.524;2023-02-28T09:41:21;99048.56;;;22.53;30.34
67818;BME280;54614;47.576;7.524;2023-02-28T09:43:53;99049.78;;;22.50;30.39
67818;BME280;54614;47.576;7.524;2023-02-28T09:46:40;99043.78;;;22.48;30.63
67818;BME280;54614;47.576;7.524;2023-02-28T09:49:14;99042.09;;;22.47;30.87
67818;BME280;54614;47.576;7.524;2023-02-28T09:52:12;99044.41;;;22.50;30.68
67818;BME280;54614;47.576;7.524;2023-02-28T09:54:39;99047.47;;;22.47;30.75
67818;BME280;54614;47.576;7.524;2023-02-28T09:57:11;99038.78;;;22.45;30.93
67818;BME280;54614;47.576;7.524;2023-02-28T10:00:49;99042.28;;;22.46;30.84
67818;BME280;54614;47.576;7.524;2023-02-28T10:06:15;99047.66;;;22.46;30.67
67818;BME280;54614;47.576;7.524;2023-02-28T10:09:08;99048.84;;;22.43;30.42
67818;BME280;54614;47.576;7.524;2023-02-28T10:11:40;99052.56;;;22.42;30.43
67818;BME280;54614;47.576;7.524;2023-02-28T10:14:16;99056.25;;;22.41;30.12
67818;BME280;54614;47.576;7.524;2023-02-28T10:16:47;99050.25;;;22.39;30.30
67818;BME280;54614;47.576;7.524;2023-02-28T10:19:44;99056.44;;;22.40;30.49
67818;BME280;54614;47.576;7.524;2023-02-28T10:22:26;99067.34;;;22.38;30.55
67818;BME280;54614;47.576;7.524;2023-02-28T10:24:55;99060.50;;;22.36;30.81
67818;BME280;54614;47.576;7.524;2023-02-28T10:27:30;99062.38;;;22.35;30.57
67818;BME280;54614;47.576;7.524;2023-02-28T10:29:59;99071.22;;;22.36;30.87
67818;BME280;54614;47.576;7.524;2023-02-28T10:32:33;99066.69;;;22.36;30.75
67818;BME280;54614;47.576;7.524;2023-02-28T10:35:17;99061.53;;;22.35;30.78
67818;BME280;54614;47.576;7.524;2023-02-28T10:37:47;99062.53;;;22.34;30.74
67818;BME280;54614;47.576;7.524;2023-02-28T10:48:45;99067.25;;;22.32;30.60
67818;BME280;54614;47.576;7.524;2023-02-28T10:51:18;99063.94;;;22.30;30.89
67818;BME280;54614;47.576;7.524;2023-02-28T10:53:55;99063.75;;;22.31;30.73
67818;BME280;54614;47.576;7.524;2023-02-28T10:56:25;99059.22;;;22.32;30.90
67818;BME280;54614;47.576;7.524;2023-02-28T10:59:27;99063.75;;;22.31;31.02
67818;BME280;54614;47.576;7.524;2023-02-28T11:01:53;99069.28;;;22.30;31.11
67818;BME280;54614;47.576;7.524;2023-02-28T11:04:34;99073.00;;;22.29;30.81
67818;BME280;54614;47.576;7.524;2023-02-28T11:07:21;99066.78;;;22.28;30.48
67818;BME280;54614;47.576;7.524;2023-02-28T11:09:55;99064.94;;;22.29;30.18
67818;BME280;54614;47.576;7.524;2023-02-28T11:12:28;99069.47;;;22.28;30.02
67818;BME280;54614;47.576;7.524;2023-02-28T11:15:02;99075.84;;;22.27;29.95
67818;BME280;54614;47.576;7.524;2023-02-28T11:17:32;99074.19;;;22.26;29.90
67818;BME280;54614;47.576;7.524;2023-02-28T11:20:07;99066.16;;;22.26;29.78
67818;BME280;54614;47.576;7.524;2023-02-28T11:22:45;99068.19;;;22.24;29.81
67818;BME280;54614;47.576;7.524;2023-02-28T11:25:34;99057.84;;;22.21;29.68
67818;BME280;54614;47.576;7.524;2023-02-28T11:28:30;99056.00;;;22.22;29.86
67818;BME280;54614;47.576;7.524;2023-02-28T11:33:53;99058.84;;;22.20;30.01
67818;BME280;54614;47.576;7.524;2023-02-28T11:36:31;99058.84;;;22.20;30.13
67818;BME280;54614;47.576;7.524;2023-02-28T11:39:04;99065.03;;;22.21;30.55
67818;BME280;54614;47.576;7.524;2023-02-28T11:42:32;99065.88;;;22.21;30.20
67818;BME280;54614;47.576;7.524;2023-02-28T11:45:24;99062.53;;;22.19;30.51
67818;BME280;54614;47.576;7.524;2023-02-28T12:03:34;99056.72;;;22.15;30.30
67818;BME280;54614;47.576;7.524;2023-02-28T12:09:28;99043.50;;;22.14;30.57
67818;BME280;54614;47.576;7.524;2023-02-28T12:15:27;99049.88;;;22.13;30.82
67818;BME280;54614;47.576;7.524;2023-02-28T12:21:25;99051.56;;;22.14;30.78
67818;BME280;54614;47.576;7.524;2023-02-28T12:24:27;99041.84;;;22.13;30.86
67818;BME280;54614;47.576;7.524;2023-02-28T12:27:02;99044.72;;;22.11;30.55
67818;BME280;54614;47.576;7.524;2023-02-28T12:29:43;99045.91;;;22.09;30.49
67818;BME280;54614;47.576;7.524;2023-02-28T12:32:25;99044.25;;;22.08;30.96
67818;BME280;54614;47.576;7.524;2023-02-28T12:35:04;99044.06;;;22.09;30.76
67818;BME280;54614;47.576;7.524;2023-02-28T12:37:43;99044.91;;;22.10;30.93
67818;BME280;54614;47.576;7.524;2023-02-28T12:40:25;99046.56;;;22.11;30.84
67818;BME280;54614;47.576;7.524;2023-02-28T12:42:59;99031.69;;;22.08;31.05
67818;BME280;54614;47.576;7.524;2023-02-28T12:49:04;99031.88;;;22.07;31.05
67818;BME280;54614;47.576;7.524;2023-02-28T12:51:32;99035.75;;;22.04;30.97
67818;BME280;54614;47.576;7.524;2023-02-28T12:57:12;99035.75;;;22.04;30.84
67818;BME280;54614;47.576;7.524;2023-02-28T12:59:55;99041.94;;;22.05;30.83
67818;BME280;54614;47.576;7.524;2023-02-28T13:05:26;99041.09;;;22.04;31.01
67818;BME280;54614;47.576;7.524;2023-02-28T13:10:49;99029.75;;;22.02;31.33
67818;BME280;54614;47.576;7.524;2023-02-28T13:13:24;99033.41;;;22.01;31.14
67818;BME280;54614;47.576;7.524;2023-02-28T13:16:10;99022.34;;;22.04;31.29
67818;BME280;54614;47.576;7.524;2023-02-28T13:18:43;99027.72;;;22.04;31.02
67818;BME280;54614;47.576;7.524;2023-02-28T13:21:30;99026.88;;;22.04;30.97
67818;BME280;54614;47.576;7.524;2023-02-28T13:24:01;99028.06;;;22.01;30.92
67818;BME280;54614;47.576;7.524;2023-02-28T13:34:36;99034.78;;;21.97;31.18
67818;BME280;54614;47.576;7.524;2023-02-28T13:42:52;99036.47;;;21.98;31.43
67818;BME280;54614;47.576;7.524;2023-02-28T13:45:27;99031.09;;;21.98;31.33
67818;BME280;54614;47.576;7.524;2023-02-28T13:47:59;99032.13;;;21.97;31.01
67818;BME280;54614;47.576;7.524;2023-02-28T13:56:04;99047.34;;;21.97;30.98
67818;BME280;54614;47.576;7.524;2023-02-28T14:02:26;99043.84;;;21.96;31.28
67818;BME280;54614;47.576;7.524;2023-02-28T14:05:02;99050.03;;;21.97;31.33
67818;BME280;54614;47.576;7.524;2023-02-28T14:07:47;99046.69;;;21.95;31.33
67818;BME280;54614;47.576;7.524;2023-02-28T14:10:48;99043.19;;;21.94;31.40
67818;BME280;54614;47.576;7.524;2023-02-28T14:13:39;99049.38;;;21.95;31.25
67818;BME280;54614;47.576;7.524;2023-02-28T14:16:35;99045.22;;;21.92;30.80
67818;BME280;54614;47.576;7.524;2023-02-28T14:19:23;99056.13;;;21.91;30.97
67818;BME280;54614;47.576;7.524;2023-02-28T14:28:26;99053.63;;;21.89;31.41
67818;BME280;54614;47.576;7.524;2023-02-28T14:31:23;99044.56;;;21.90;31.50
67818;BME280;54614;47.576;7.524;2023-02-28T14:34:31;99047.44;;;21.88;31.58
67818;BME280;54614;47.576;7.524;2023-02-28T14:37:03;99053.81;;;21.87;31.40
67818;BME280;54614;47.576;7.524;2023-02-28T14:39:31;99039.41;;;21.88;31.32
67818;BME280;54614;47.576;7.524;2023-02-28T14:41:57;99050.56;;;21.92;30.99
67818;BME280;54614;47.576;7.524;2023-02-28T14:44:30;99049.09;;;21.90;30.82
67818;BME280;54614;47.576;7.524;2023-02-28T14:47:01;99052.59;;;21.90;31.01
67818;BME280;54614;47.576;7.524;2023-02-28T14:49:44;99050.13;;;21.88;31.32
67818;BME280;54614;47.576;7.524;2023-02-28T14:52:28;99060.00;;;21.88;31.19
67818;BME280;54614;47.576;7.524;2023-02-28T14:55:10;99061.19;;;21.85;31.34
67818;BME280;54614;47.576;7.524;2023-02-28T14:57:54;99065.53;;;21.86;31.32
67818;BME280;54614;47.576;7.524;2023-02-28T15:00:31;99078.09;;;21.86;31.81
67818;BME280;54614;47.576;7.524;2023-02-28T15:03:00;99060.53;;;21.83;31.47
67818;BME280;54614;47.576;7.524;2023-02-28T15:05:34;99059.72;;;21.83;31.63
67818;BME280;54614;47.576;7.524;2023-02-28T15:08:15;99060.53;;;21.83;31.16
67818;BME280;54614;47.576;7.524;2023-02-28T15:11:13;99061.38;;;21.84;31.39
67818;BME280;54614;47.576;7.524;2023-02-28T15:13:42;99070.31;;;21.76;31.49
67818;BME280;54614;47.576;7.524;2023-02-28T15:21:49;99070.59;;;21.81;32.51
67818;BME280;54614;47.576;7.524;2023-02-28T15:24:23;99067.09;;;21.81;32.59
67818;BME280;54614;47.576;7.524;2023-02-28T15:26:56;99074.94;;;21.82;31.79
67818;BME280;54614;47.576;7.524;2023-02-28T15:29:27;99076.44;;;21.85;31.62